Terminal Aerodrome Forecast
Issued by NWS

Current Version | Previous Version | Text Only | Print | Product List | Glossary Off
Versions: 1 2 3 4 5 6 7 8 9 10 11 12 13 14 15 16

597
FTUS41 KRLX 221440 AAA
TAFCKB
TAF AMD
KCKB 221440Z 2215/2312 04004KT P6SM SCT100 BKN250
     FM230000 08003KT P6SM SCT250
     FM231000 11004KT P6SM SCT250=

USA.gov is the U.S. government's official web portal to all federal, state and local government web resources and services.